الصفحة الرئيسية
METAR-TAF:

METAR-TAF

مطار :

Arviat, نونافوت, كندا

دائرة عرض: 61-06N, خط طول: 094-04W, ارتفاع: 10 متر

مراقبة الطقس الحالي

تاريخ ووقت الإصدار 1ساعة و 12 دقيقة قبل الساعة 16:00UTC
ريح 8 عقدة من الشمال الشرقي
درجة الحرارة 10°درجة مئوية
الرطوبة 57%
ضغط 1011 hPa
الرؤية: 24.1 كم
سماء صافية

METAR: CYEK 151600Z 05008KT 15SM SKC 10/02 A2986 RMK SLP115

زمن: 12:12 (17:12 UTC)

توقعات

تاريخ ووقت الإصدار 5ساعات و 32 دقيقة قبل الساعة 11:40UTC
التوقعات صالحة من15 الساعة 12 UTC إلى 15 الساعة 24 UTC
ريح 8 عقدة من الشمال
الرؤية: 10 كم
غيوم قليلة على ارتفاع 6000 قدم
أصبح
من 15 الساعة 16 UTC إلى 15 الساعة 18 UTC
ريح 10 عقدة من الجنوب/الجنوب الشرقي

TAF: CYEK 151140Z 1512/1524 01008KT P6SM FEW060 BECMG 1516/1518 16010KT RMK FCST BASED ON AUTO OBS. NXT FCST BY 151800Z

أرصاد الطقس والتوقعات من أكثر من 4000 مطار (تقارير الطقس للمطار METAR والتنبؤ بالطقس بالمطارTAF).

المحطات المتاحة هي النقط الصفراء والحمراء على الخريطة.

حرك المؤشر فوق النقطة لمعرفة اسم المحطة.

ثم انقر لمعرفة أرصاد وتوقعات الطقس.

لتغيير الخارطة: اضغط على الأزرار الخضراء مع رمز الصليب الأسود للتكبير. على الزر الأخضر مع شرطة للتصغير، أو على الأسهم الخضراء للخرائط المجاورة.


METAR-TAF: